Jakarta/Soekarno-Hatta, Indonesia
Current Conditions -  °F | °C
As of 2:00 PM on Saturday 25 Oct 2014 (Local Time) from WIII Reporting Station
Few Clouds Few Clouds  
Wind Chill: 93°   Ceiling: Unl
Heat Index: 105°   Visibility: 6mi
Dew Point: 75°   Wind: 20mph
Humidity: 56%   Direction: 40°NE
Pressure: 29.8"   Gusts: NA
Location:  6.13°S, 106.66°E
Report Text: WIII 250700Z 04017KT 9000 FEW022 34/24 Q1009 NOSIG
Loading
Personal Weather Stations






























Interactive Weather Map
Tropical Storm Tracking
New forecast layout! Learn more

10-Day Weather Forecast

Advertisements
Track Severe Weather on mobile